createdAt,value
2017-08-18T00:00:48.900Z,18.90
2017-08-18T00:03:16.479Z,18.90
2017-08-18T00:05:44.063Z,18.90
2017-08-18T00:08:11.694Z,18.80
2017-08-18T00:10:39.263Z,18.70
2017-08-18T00:13:06.894Z,18.70
2017-08-18T00:15:34.498Z,18.60
2017-08-18T00:18:02.090Z,18.60
2017-08-18T00:20:29.721Z,18.50
2017-08-18T00:22:57.319Z,18.40
2017-08-18T00:25:24.905Z,18.40
2017-08-18T00:27:52.713Z,18.40
2017-08-18T00:30:20.235Z,18.30
2017-08-18T00:32:47.801Z,18.30
2017-08-18T00:35:15.396Z,18.20
2017-08-18T00:37:42.977Z,18.20
2017-08-18T00:40:10.604Z,18.10
2017-08-18T00:42:38.203Z,18.00
2017-08-18T00:45:05.759Z,18.00
2017-08-18T00:47:33.327Z,17.90
2017-08-18T00:50:00.938Z,17.90
2017-08-18T00:52:28.522Z,17.80
2017-08-18T00:54:56.136Z,17.70
2017-08-18T00:57:23.750Z,17.70
2017-08-18T00:59:51.320Z,17.60
2017-08-18T01:02:18.896Z,17.50
2017-08-18T01:04:46.662Z,17.40
2017-08-18T01:07:14.253Z,17.40
2017-08-18T01:09:41.822Z,17.30
2017-08-18T01:12:09.394Z,17.30
2017-08-18T01:14:36.969Z,17.20
2017-08-18T01:17:04.540Z,17.10
2017-08-18T01:19:32.264Z,17.10
2017-08-18T01:21:59.789Z,17.10
2017-08-18T01:24:27.404Z,17.00
2017-08-18T01:26:55.024Z,17.00
2017-08-18T01:29:22.610Z,17.00
2017-08-18T01:31:50.211Z,17.00
2017-08-18T01:34:18.011Z,17.10
2017-08-18T01:36:45.597Z,17.10
2017-08-18T01:39:13.155Z,17.20
2017-08-18T01:41:40.829Z,17.30
2017-08-18T01:44:08.372Z,17.40
2017-08-18T01:46:35.940Z,17.40
2017-08-18T01:49:03.591Z,17.50
2017-08-18T01:51:31.102Z,17.50
2017-08-18T01:53:58.635Z,17.50
2017-08-18T01:56:26.240Z,17.50
2017-08-18T01:58:53.838Z,17.40
2017-08-18T02:01:21.468Z,17.40
2017-08-18T02:03:49.075Z,17.40
2017-08-18T02:06:16.637Z,17.30
2017-08-18T02:08:44.229Z,17.40
2017-08-18T02:11:11.997Z,17.30
2017-08-18T02:13:39.537Z,17.30
2017-08-18T02:16:07.115Z,17.30
2017-08-18T02:18:34.887Z,17.30
2017-08-18T02:21:02.461Z,17.30
2017-08-18T02:23:30.056Z,17.30
2017-08-18T02:25:57.861Z,17.30
2017-08-18T02:28:25.441Z,17.30
2017-08-18T02:30:53.013Z,17.30
2017-08-18T02:33:20.606Z,17.40
2017-08-18T02:35:48.170Z,17.40
2017-08-18T02:38:15.740Z,17.40
2017-08-18T02:40:43.521Z,17.40
2017-08-18T02:43:11.102Z,17.40
2017-08-18T02:45:38.644Z,17.30
2017-08-18T02:48:06.296Z,17.40
2017-08-18T02:50:33.908Z,17.40
2017-08-18T02:53:01.488Z,17.40
2017-08-18T02:55:29.108Z,17.50
2017-08-18T02:57:56.670Z,17.50
2017-08-18T03:00:24.214Z,17.50
2017-08-18T03:02:51.830Z,17.60
2017-08-18T03:05:19.360Z,17.60
2017-08-18T03:07:46.953Z,17.60
2017-08-18T03:10:14.548Z,17.60
2017-08-18T03:12:42.118Z,17.60
2017-08-18T03:15:09.712Z,17.60
2017-08-18T03:17:37.371Z,17.50
2017-08-18T03:20:04.983Z,17.50
2017-08-18T03:22:32.599Z,17.40
2017-08-18T03:25:00.381Z,17.40
2017-08-18T03:27:27.914Z,17.30
2017-08-18T03:29:55.508Z,17.20
2017-08-18T03:32:23.186Z,17.20
2017-08-18T03:34:50.755Z,17.10
2017-08-18T03:37:18.364Z,17.00
2017-08-18T03:39:45.960Z,16.90
2017-08-18T03:42:13.502Z,16.80
2017-08-18T03:44:41.023Z,16.80
2017-08-18T03:47:08.702Z,16.80
2017-08-18T03:49:36.281Z,16.80
2017-08-18T03:52:03.847Z,16.70
2017-08-18T03:54:31.516Z,16.60
2017-08-18T03:56:59.092Z,16.60
2017-08-18T03:59:27.409Z,16.60
2017-08-18T04:01:55.172Z,16.60
2017-08-18T04:04:22.809Z,16.60
2017-08-18T04:06:50.396Z,16.60
2017-08-18T04:09:18.039Z,16.70
2017-08-18T04:11:45.612Z,16.70
2017-08-18T04:14:13.504Z,16.80
2017-08-18T04:16:41.262Z,16.80
2017-08-18T04:19:08.840Z,16.80
2017-08-18T04:21:36.425Z,16.90
2017-08-18T04:24:04.045Z,17.00
2017-08-18T04:26:31.653Z,17.10
2017-08-18T04:28:59.264Z,17.20
2017-08-18T04:31:26.870Z,17.30
2017-08-18T04:33:54.430Z,17.40
2017-08-18T04:36:21.975Z,17.40
2017-08-18T04:38:49.604Z,17.40
2017-08-18T04:41:17.180Z,17.60
2017-08-18T04:43:44.769Z,17.60
2017-08-18T04:46:12.436Z,17.70
2017-08-18T04:48:40.048Z,17.90
2017-08-18T04:51:07.680Z,18.10
2017-08-18T04:53:35.272Z,18.40
2017-08-18T04:56:02.845Z,18.70
2017-08-18T04:58:30.376Z,19.10
2017-08-18T05:00:58.173Z,19.60
2017-08-18T05:03:25.727Z,20.20
2017-08-18T05:05:53.282Z,20.90
2017-08-18T05:08:20.969Z,21.50
2017-08-18T05:10:48.558Z,22.20
2017-08-18T05:13:16.121Z,22.80
2017-08-18T05:15:43.736Z,23.50
2017-08-18T05:18:11.284Z,24.40
2017-08-18T05:20:38.768Z,25.00
2017-08-18T05:23:06.366Z,25.80
2017-08-18T05:25:33.906Z,26.50
2017-08-18T05:28:01.461Z,27.10
2017-08-18T05:30:29.051Z,27.70
2017-08-18T05:32:56.615Z,28.10
2017-08-18T05:35:24.153Z,28.50
2017-08-18T05:37:51.903Z,28.50
2017-08-18T05:40:20.227Z,30.20
2017-08-18T05:42:47.787Z,30.20
2017-08-18T05:45:15.411Z,30.60
2017-08-18T05:47:43.319Z,30.90
2017-08-18T05:50:10.867Z,31.40
2017-08-18T05:52:38.428Z,31.10
2017-08-18T05:55:06.087Z,31.10
2017-08-18T05:57:33.677Z,31.90
2017-08-18T06:00:01.292Z,32.60
2017-08-18T06:02:28.812Z,32.90
2017-08-18T06:04:56.332Z,33.40
2017-08-18T06:07:23.976Z,33.80
2017-08-18T06:09:51.571Z,33.90
2017-08-18T06:12:19.109Z,35.10
2017-08-18T06:14:46.690Z,35.70
2017-08-18T06:17:14.253Z,36.60
2017-08-18T06:19:41.811Z,37.00
2017-08-18T06:22:09.385Z,37.30
2017-08-18T06:24:36.919Z,37.50
2017-08-18T06:27:05.038Z,37.80
2017-08-18T06:29:32.595Z,38.00
2017-08-18T06:32:00.129Z,37.80
2017-08-18T06:34:27.655Z,38.40
2017-08-18T06:36:55.214Z,37.80
2017-08-18T06:39:23.762Z,38.10
2017-08-18T06:41:51.339Z,37.40
2017-08-18T06:44:19.071Z,37.70
2017-08-18T06:46:46.600Z,37.60
2017-08-18T06:49:14.234Z,37.70
2017-08-18T06:51:41.815Z,36.60
2017-08-18T06:54:09.318Z,36.60
2017-08-18T06:56:36.829Z,37.10
2017-08-18T06:59:04.566Z,37.00
2017-08-18T07:01:32.124Z,37.30
2017-08-18T07:03:59.654Z,37.80
2017-08-18T07:06:27.213Z,38.00
2017-08-18T07:08:54.783Z,37.60
2017-08-18T07:11:22.374Z,37.70
2017-08-18T07:13:49.948Z,38.30
2017-08-18T07:16:17.498Z,38.10
2017-08-18T07:18:45.053Z,38.10
2017-08-18T07:21:12.829Z,38.90
2017-08-18T07:23:40.358Z,39.00
2017-08-18T07:26:07.904Z,38.80
2017-08-18T07:28:35.440Z,39.60
2017-08-18T07:31:03.011Z,39.90
2017-08-18T07:33:30.562Z,40.30
2017-08-18T07:35:58.284Z,41.00
2017-08-18T07:38:26.788Z,41.10
2017-08-18T07:40:54.355Z,40.80
2017-08-18T07:43:22.110Z,40.80
2017-08-18T07:45:49.664Z,40.20
2017-08-18T07:48:17.248Z,39.80
2017-08-18T07:50:44.856Z,40.00
2017-08-18T07:53:12.390Z,40.10
2017-08-18T07:55:39.966Z,40.60
2017-08-18T07:58:07.541Z,40.80
2017-08-18T08:00:35.090Z,41.20
2017-08-18T08:03:02.655Z,41.00
2017-08-18T08:05:30.261Z,41.70
2017-08-18T08:07:57.852Z,41.80
2017-08-18T08:10:25.390Z,41.30
2017-08-18T08:12:53.082Z,40.50
2017-08-18T08:15:20.642Z,40.50
2017-08-18T08:17:48.206Z,39.60
2017-08-18T08:20:16.011Z,40.20
2017-08-18T08:22:43.973Z,39.60
2017-08-18T08:25:11.538Z,39.10
2017-08-18T08:27:39.297Z,37.80
2017-08-18T08:30:06.868Z,37.80
2017-08-18T08:32:34.388Z,38.10
2017-08-18T08:35:01.978Z,37.40
2017-08-18T08:37:29.496Z,36.20
2017-08-18T08:39:57.041Z,36.70
2017-08-18T08:42:24.618Z,38.20
2017-08-18T08:44:52.200Z,38.80
2017-08-18T08:47:19.771Z,39.00
2017-08-18T08:49:47.544Z,38.90
2017-08-18T08:52:15.033Z,39.20
2017-08-18T08:54:42.607Z,39.70
2017-08-18T08:57:10.204Z,39.50
2017-08-18T08:59:37.725Z,40.10
2017-08-18T09:02:05.287Z,40.80
2017-08-18T09:04:32.885Z,40.50
2017-08-18T09:07:00.446Z,41.10
2017-08-18T09:09:27.959Z,41.30
2017-08-18T09:11:55.837Z,41.50
2017-08-18T09:14:23.405Z,40.80
2017-08-18T09:16:50.952Z,41.30
2017-08-18T09:19:18.526Z,41.30
2017-08-18T09:21:46.086Z,40.50
2017-08-18T09:24:13.710Z,40.40
2017-08-18T09:26:41.430Z,40.70
2017-08-18T09:29:08.994Z,40.10
2017-08-18T09:31:36.570Z,40.10
2017-08-18T09:34:04.586Z,40.40
2017-08-18T09:36:32.174Z,40.90
2017-08-18T09:38:59.736Z,40.50
2017-08-18T09:41:27.557Z,39.80
2017-08-18T09:43:55.171Z,39.10
2017-08-18T09:46:23.492Z,39.70
2017-08-18T09:49:02.884Z,39.60
2017-08-18T09:51:42.133Z,40.00
2017-08-18T09:54:36.185Z,39.80
2017-08-18T09:57:15.434Z,39.80
2017-08-18T09:59:43.067Z,39.80
2017-08-18T10:02:10.619Z,39.10
2017-08-18T10:04:39.282Z,38.90
2017-08-18T10:07:10.722Z,38.70
2017-08-18T10:09:38.314Z,38.90
2017-08-18T10:12:05.889Z,39.10
2017-08-18T10:14:33.529Z,38.50
2017-08-18T10:17:01.068Z,37.90
2017-08-18T10:19:28.628Z,37.00
2017-08-18T10:21:56.188Z,36.20
2017-08-18T10:24:23.797Z,35.40
2017-08-18T10:26:51.350Z,34.70
2017-08-18T10:29:18.999Z,35.30
2017-08-18T10:31:46.525Z,35.50
2017-08-18T10:34:14.459Z,36.50
2017-08-18T10:36:42.062Z,37.10
2017-08-18T10:39:09.618Z,38.40
2017-08-18T10:41:37.263Z,39.00
2017-08-18T10:44:04.882Z,39.50
2017-08-18T10:46:32.463Z,39.50
2017-08-18T10:49:00.013Z,40.00
2017-08-18T10:51:27.957Z,40.00
2017-08-18T10:53:58.175Z,39.20
2017-08-18T10:56:26.163Z,39.00
2017-08-18T10:58:54.293Z,40.00
2017-08-18T11:01:25.969Z,40.60
2017-08-18T11:03:54.534Z,41.10
2017-08-18T11:06:22.983Z,39.30
2017-08-18T11:08:50.632Z,39.30
2017-08-18T11:11:18.407Z,37.80
2017-08-18T11:13:46.127Z,37.30
2017-08-18T11:16:14.956Z,36.70
2017-08-18T11:18:42.776Z,36.40
2017-08-18T11:21:10.741Z,36.90
2017-08-18T11:23:38.293Z,37.00
2017-08-18T11:26:05.877Z,35.40
2017-08-18T11:28:33.550Z,34.80
2017-08-18T11:31:01.201Z,33.90
2017-08-18T11:33:29.419Z,33.20
2017-08-18T11:35:57.456Z,33.30
2017-08-18T11:38:25.188Z,33.60
2017-08-18T11:40:53.615Z,33.50
2017-08-18T11:43:21.551Z,32.70
2017-08-18T11:45:49.607Z,32.20
2017-08-18T11:48:17.819Z,32.10
2017-08-18T11:50:45.906Z,32.40
2017-08-18T11:53:14.840Z,33.10
2017-08-18T11:55:43.642Z,33.40
2017-08-18T11:58:12.088Z,33.20
2017-08-18T12:00:40.795Z,33.20
2017-08-18T12:03:09.898Z,33.10
2017-08-18T12:05:38.662Z,32.90
2017-08-18T12:08:06.617Z,33.00
2017-08-18T12:10:34.575Z,33.20
2017-08-18T12:13:02.791Z,33.10
2017-08-18T12:15:31.099Z,32.90
2017-08-18T12:17:59.111Z,32.40
2017-08-18T12:20:26.936Z,32.40
2017-08-18T12:22:56.044Z,32.40
2017-08-18T12:25:23.876Z,32.40
2017-08-18T12:27:51.722Z,32.40
2017-08-18T12:30:19.632Z,32.30
2017-08-18T12:32:48.061Z,31.70
2017-08-18T12:35:16.083Z,31.40
2017-08-18T12:37:43.805Z,31.20
2017-08-18T12:40:11.409Z,31.10
2017-08-18T12:42:39.660Z,31.30
2017-08-18T12:45:08.032Z,30.70
2017-08-18T12:47:36.008Z,30.90
2017-08-18T12:50:04.157Z,31.30
2017-08-18T12:52:32.184Z,31.00
2017-08-18T12:55:00.171Z,30.90
2017-08-18T12:57:27.998Z,30.50
2017-08-18T12:59:55.786Z,30.20
2017-08-18T13:02:23.510Z,30.40
2017-08-18T13:04:51.803Z,30.60
2017-08-18T13:07:19.457Z,30.60
2017-08-18T13:09:47.091Z,30.70
2017-08-18T13:12:14.880Z,30.70
2017-08-18T13:14:43.050Z,30.70
2017-08-18T13:17:11.235Z,30.40
2017-08-18T13:19:38.881Z,30.10
2017-08-18T13:22:06.526Z,29.90
2017-08-18T13:24:34.481Z,29.50
2017-08-18T13:27:02.936Z,29.20
2017-08-18T13:29:30.795Z,29.20
2017-08-18T13:31:58.331Z,29.30
2017-08-18T13:34:26.175Z,29.20
2017-08-18T13:36:53.772Z,29.30
2017-08-18T13:39:25.571Z,29.30
2017-08-18T13:41:54.531Z,29.20
2017-08-18T13:44:22.679Z,29.20
2017-08-18T13:46:51.468Z,28.90
2017-08-18T13:49:20.351Z,28.80
2017-08-18T13:51:48.076Z,28.80
2017-08-18T13:54:16.041Z,28.60
2017-08-18T13:56:45.165Z,28.60
2017-08-18T13:59:13.571Z,28.70
2017-08-18T14:01:41.679Z,29.20
2017-08-18T14:04:10.021Z,29.50
2017-08-18T14:06:37.900Z,29.60
2017-08-18T14:09:05.741Z,29.80
2017-08-18T14:11:33.591Z,29.60
2017-08-18T14:14:01.324Z,30.10
2017-08-18T14:16:29.338Z,29.70
2017-08-18T14:18:57.471Z,29.50
2017-08-18T14:21:25.248Z,29.60
2017-08-18T14:23:52.864Z,29.30
2017-08-18T14:26:26.044Z,29.20
2017-08-18T14:28:53.635Z,29.20
2017-08-18T14:31:21.204Z,29.30
2017-08-18T14:33:48.842Z,29.40
2017-08-18T14:36:16.577Z,28.90
2017-08-18T14:38:44.238Z,28.80
2017-08-18T14:41:12.040Z,28.80
2017-08-18T14:43:39.825Z,28.50
2017-08-18T14:46:07.745Z,28.50
2017-08-18T14:48:35.650Z,28.50
2017-08-18T14:51:03.309Z,28.20
2017-08-18T14:53:30.892Z,28.10
2017-08-18T14:55:58.518Z,28.20
2017-08-18T14:58:26.115Z,28.20
2017-08-18T15:00:53.705Z,28.20
2017-08-18T15:03:21.289Z,28.30
2017-08-18T15:05:48.929Z,28.30
2017-08-18T15:08:16.465Z,28.30
2017-08-18T15:10:44.051Z,28.30
2017-08-18T15:13:11.639Z,28.30
2017-08-18T15:15:40.375Z,28.20
2017-08-18T15:18:08.034Z,28.10
2017-08-18T15:20:36.562Z,28.00
2017-08-18T15:23:04.368Z,27.90
2017-08-18T15:25:32.132Z,28.00
2017-08-18T15:27:59.718Z,28.00
2017-08-18T15:30:29.484Z,28.00
2017-08-18T15:32:58.643Z,28.00
2017-08-18T15:35:26.552Z,27.90
2017-08-18T15:37:55.716Z,27.90
2017-08-18T15:40:24.270Z,27.90
2017-08-18T15:42:52.222Z,27.90
2017-08-18T15:45:20.087Z,28.00
2017-08-18T15:47:49.702Z,28.00
2017-08-18T15:50:17.932Z,28.00
2017-08-18T15:52:47.423Z,27.80
2017-08-18T15:55:16.544Z,27.80
2017-08-18T15:57:46.130Z,27.70
2017-08-18T16:00:13.993Z,27.60
2017-08-18T16:02:42.829Z,27.60
2017-08-18T16:05:11.429Z,27.70
2017-08-18T16:07:40.277Z,27.80
2017-08-18T16:10:09.472Z,27.90
2017-08-18T16:12:38.414Z,28.00
2017-08-18T16:15:07.919Z,28.10
2017-08-18T16:17:36.495Z,28.10
2017-08-18T16:20:05.231Z,28.10
2017-08-18T16:22:33.975Z,28.10
2017-08-18T16:25:03.313Z,28.10
2017-08-18T16:27:32.446Z,28.00
2017-08-18T16:30:02.794Z,27.90
2017-08-18T16:32:31.454Z,27.90
2017-08-18T16:35:00.439Z,27.80
2017-08-18T16:37:29.016Z,27.80
2017-08-18T16:39:57.679Z,27.70
2017-08-18T16:42:25.707Z,27.60
2017-08-18T16:44:53.918Z,27.50
2017-08-18T16:47:23.236Z,27.30
2017-08-18T16:49:51.346Z,27.30
2017-08-18T16:52:19.399Z,27.30
2017-08-18T16:54:47.452Z,27.10
2017-08-18T16:57:15.699Z,27.10
2017-08-18T16:59:43.850Z,27.10
2017-08-18T17:02:16.017Z,27.00
2017-08-18T17:04:44.142Z,27.00
2017-08-18T17:07:12.252Z,26.90
2017-08-18T17:09:46.289Z,26.80
2017-08-18T17:12:20.287Z,26.60
2017-08-18T17:14:49.830Z,26.40
2017-08-18T17:17:18.732Z,26.10
2017-08-18T17:19:46.862Z,26.10
2017-08-18T17:22:15.596Z,26.00
2017-08-18T17:24:43.721Z,25.90
2017-08-18T17:27:12.275Z,25.80
2017-08-18T17:29:40.972Z,25.60
2017-08-18T17:32:09.753Z,25.60
2017-08-18T17:34:37.794Z,25.60
2017-08-18T17:37:09.555Z,25.50
2017-08-18T17:39:37.719Z,25.40
2017-08-18T17:42:07.177Z,25.30
2017-08-18T17:44:36.165Z,25.10
2017-08-18T17:47:03.975Z,25.10
2017-08-18T17:49:32.143Z,25.00
2017-08-18T17:52:01.167Z,24.90
2017-08-18T17:54:28.998Z,24.80
2017-08-18T17:56:57.090Z,24.60
2017-08-18T17:59:25.264Z,24.50
2017-08-18T18:01:53.249Z,24.40
2017-08-18T18:04:22.026Z,24.30
2017-08-18T18:06:53.584Z,24.20
2017-08-18T18:09:21.903Z,24.20
2017-08-18T18:11:53.654Z,24.20
2017-08-18T18:14:22.882Z,24.20
2017-08-18T18:16:55.779Z,24.10
2017-08-18T18:19:24.224Z,24.00
2017-08-18T18:21:52.302Z,24.00
2017-08-18T18:24:21.133Z,23.90
2017-08-18T18:26:50.523Z,23.90
2017-08-18T18:29:19.069Z,23.90
2017-08-18T18:31:49.750Z,23.90
2017-08-18T18:34:18.209Z,23.80
2017-08-18T18:36:46.167Z,23.80
2017-08-18T18:39:15.141Z,23.80
2017-08-18T18:41:43.622Z,23.80
2017-08-18T18:44:11.650Z,23.80
2017-08-18T18:46:40.965Z,23.80
2017-08-18T18:49:09.082Z,23.80
2017-08-18T18:51:37.077Z,23.80
2017-08-18T18:54:05.657Z,23.70
2017-08-18T18:56:33.502Z,23.60
2017-08-18T18:59:01.522Z,23.60
2017-08-18T19:01:29.278Z,23.70
2017-08-18T19:03:57.361Z,23.70
2017-08-18T19:06:25.233Z,23.90
2017-08-18T19:08:53.221Z,24.00
2017-08-18T19:11:21.003Z,24.00
2017-08-18T19:13:48.974Z,24.00
2017-08-18T19:16:16.942Z,24.10
2017-08-18T19:18:45.739Z,24.00
2017-08-18T19:21:13.825Z,23.90
2017-08-18T19:23:42.189Z,23.80
2017-08-18T19:26:10.961Z,23.70
2017-08-18T19:28:39.075Z,23.70
2017-08-18T19:31:07.075Z,23.60
2017-08-18T19:33:38.362Z,23.50
2017-08-18T19:36:06.231Z,23.30
2017-08-18T19:38:34.095Z,23.20
2017-08-18T19:41:02.222Z,23.10
2017-08-18T19:43:31.122Z,22.90
2017-08-18T19:45:59.609Z,22.80
2017-08-18T19:48:27.945Z,22.80
2017-08-18T19:50:56.323Z,22.70
2017-08-18T19:53:24.351Z,22.70
2017-08-18T19:55:52.474Z,22.60
2017-08-18T19:58:28.597Z,22.50
2017-08-18T20:00:56.779Z,22.50
2017-08-18T20:03:24.659Z,22.40
2017-08-18T20:05:53.646Z,22.30
2017-08-18T20:08:21.732Z,22.30
2017-08-18T20:10:51.071Z,22.30
2017-08-18T20:13:19.732Z,22.30
2017-08-18T20:15:47.882Z,22.30
2017-08-18T20:18:15.909Z,22.40
2017-08-18T20:20:44.089Z,22.40
2017-08-18T20:23:12.148Z,22.50
2017-08-18T20:25:40.370Z,22.40
2017-08-18T20:28:08.945Z,22.40
2017-08-18T20:30:37.274Z,22.50
2017-08-18T20:33:05.514Z,22.50
2017-08-18T20:35:33.577Z,22.50
2017-08-18T20:38:01.783Z,22.60
2017-08-18T20:40:31.469Z,22.60
2017-08-18T20:42:59.591Z,22.50
2017-08-18T20:45:27.379Z,22.60
2017-08-18T20:47:54.944Z,22.60
2017-08-18T20:50:22.476Z,22.60
2017-08-18T20:52:51.518Z,22.20
2017-08-18T21:06:42.826Z,19.40
2017-08-18T21:09:10.426Z,19.20
2017-08-18T21:11:38.005Z,19.10
2017-08-18T21:14:05.607Z,19.00
2017-08-18T21:16:33.127Z,18.90
2017-08-18T21:19:00.677Z,18.90
2017-08-18T21:21:28.443Z,18.80
2017-08-18T21:23:56.633Z,18.80
2017-08-18T21:26:24.220Z,18.80
2017-08-18T21:28:51.826Z,18.70
2017-08-18T21:31:19.373Z,18.80
2017-08-18T21:33:46.953Z,18.70
2017-08-18T21:36:14.657Z,18.70
2017-08-18T21:38:42.202Z,18.70
2017-08-18T21:41:09.741Z,18.70
2017-08-18T21:43:37.420Z,18.70
2017-08-18T21:46:04.993Z,18.60
2017-08-18T21:48:32.558Z,18.60
2017-08-18T21:51:00.088Z,18.60
2017-08-18T21:53:27.631Z,18.60
2017-08-18T21:55:55.215Z,18.60
2017-08-18T21:58:22.777Z,18.60
2017-08-18T22:00:50.345Z,18.70
2017-08-18T22:03:17.867Z,18.70
2017-08-18T22:05:45.563Z,18.70
2017-08-18T22:08:13.844Z,18.70
2017-08-18T22:10:41.411Z,18.70
2017-08-18T22:13:08.969Z,18.60
2017-08-18T22:15:36.531Z,18.60
2017-08-18T22:18:04.122Z,18.50
2017-08-18T22:20:31.804Z,18.50
2017-08-18T22:22:59.396Z,18.50
2017-08-18T22:25:27.558Z,18.50
2017-08-18T22:27:55.117Z,18.50
2017-08-18T22:30:22.676Z,18.60
2017-08-18T22:32:50.269Z,18.60
2017-08-18T22:35:17.845Z,18.60
2017-08-18T22:37:46.071Z,18.70
2017-08-18T22:40:13.639Z,18.60
2017-08-18T22:42:41.225Z,18.60
2017-08-18T22:45:08.804Z,18.60
2017-08-18T22:47:36.400Z,18.60
2017-08-18T22:50:03.975Z,18.60
2017-08-18T22:52:31.525Z,18.60
2017-08-18T22:54:59.119Z,18.60
2017-08-18T22:57:26.732Z,18.60
2017-08-18T22:59:54.282Z,18.60
2017-08-18T23:02:21.856Z,18.60
2017-08-18T23:04:49.604Z,18.60
2017-08-18T23:07:17.153Z,18.60
2017-08-18T23:09:44.714Z,18.60
2017-08-18T23:12:12.406Z,18.70
2017-08-18T23:14:39.988Z,18.70
2017-08-18T23:17:08.650Z,18.70
2017-08-18T23:19:36.264Z,18.70
2017-08-18T23:22:03.806Z,18.70
2017-08-18T23:24:31.343Z,18.60
2017-08-18T23:26:58.920Z,18.60
2017-08-18T23:29:26.421Z,18.60
2017-08-18T23:31:53.995Z,18.60
2017-08-18T23:34:21.632Z,18.60
2017-08-18T23:36:49.193Z,18.60
2017-08-18T23:39:16.778Z,18.50
2017-08-18T23:41:44.499Z,18.60
2017-08-18T23:44:12.049Z,18.60
2017-08-18T23:46:39.595Z,18.60
2017-08-18T23:49:07.161Z,18.60
2017-08-18T23:51:34.659Z,18.50
2017-08-18T23:54:02.180Z,18.50
2017-08-18T23:56:29.758Z,18.50
2017-08-18T23:58:57.299Z,18.50
